Time;durP1;ratioP1;P1;durP2;ratioP2;P2;SDS_P1;SDS_P2;PMS_P1;PMS_P2;Temp;Humidity;BMP_temperature;BMP_pressure;BME280_temperature;BME280_humidity;BME280_pressure;Samples;Min_cycle;Max_cycle;Signal;HPM_P1;HPM_P2
2022/07/02 00:02:25;;;;;;;2.60;2.17;;;19.80;80.10;;;;;;5013264;28;20445;-83
2022/07/02 00:04:58;;;;;;;6.60;4.30;;;19.70;80.60;;;;;;5023745;28;21017;-82
2022/07/02 00:07:27;;;;;;;4.20;3.80;;;19.70;81.20;;;;;;5009582;28;20485;-81
2022/07/02 00:09:55;;;;;;;3.30;2.23;;;19.70;81.70;;;;;;5022769;28;20457;-83
2022/07/02 00:12:28;;;;;;;4.20;2.03;;;19.80;81.50;;;;;;5009276;28;20458;-85
2022/07/02 00:14:58;;;;;;;4.50;2.20;;;19.80;81.40;;;;;;5023269;28;20477;-84
2022/07/02 00:17:24;;;;;;;3.93;2.00;;;19.70;82.00;;;;;;5029490;28;20452;-81
2022/07/02 00:19:52;;;;;;;5.57;2.23;;;19.60;82.90;;;;;;5024542;28;20551;-83
2022/07/02 00:22:19;;;;;;;4.13;2.10;;;19.40;84.10;;;;;;5041661;28;20758;-84
2022/07/02 00:24:46;;;;;;;2.27;1.90;;;19.30;85.10;;;;;;5002793;28;20914;-82
2022/07/02 00:27:15;;;;;;;3.80;1.77;;;19.60;84.80;;;;;;5003049;28;20533;-83
2022/07/02 00:29:47;;;;;;;2.13;1.80;;;19.60;84.20;;;;;;5021029;28;20449;-83
2022/07/02 00:32:14;;;;;;;2.67;2.10;;;19.50;84.80;;;;;;5005427;28;20457;-81
2022/07/02 00:34:44;;;;;;;2.10;2.00;;;19.50;85.30;;;;;;5005520;28;20468;-84
2022/07/02 00:37:11;;;;;;;2.30;2.10;;;19.40;85.60;;;;;;5020180;28;20546;-82
2022/07/02 00:39:38;;;;;;;2.00;1.80;;;19.30;86.20;;;;;;5001741;28;20469;-82
2022/07/02 00:42:06;;;;;;;2.70;1.80;;;19.10;87.50;;;;;;5004435;28;20492;-83
2022/07/02 00:44:33;;;;;;;3.80;1.93;;;19.00;88.30;;;;;;5007060;28;20452;-83
2022/07/02 00:47:08;;;;;;;5.70;2.10;;;19.20;88.40;;;;;;4989547;28;20449;-85
2022/07/02 00:49:38;;;;;;;3.10;1.77;;;19.10;88.70;;;;;;5003858;28;20479;-84
2022/07/02 00:52:06;;;;;;;3.10;1.93;;;18.90;89.10;;;;;;5006359;28;20468;-83
2022/07/02 00:54:35;;;;;;;2.90;2.10;;;18.80;89.90;;;;;;5017493;28;20473;-82
2022/07/02 00:57:05;;;;;;;2.70;2.03;;;18.90;90.20;;;;;;5000827;28;20536;-83
2022/07/02 00:59:33;;;;;;;3.43;2.47;;;18.80;90.50;;;;;;5017986;28;20479;-84
2022/07/02 01:02:00;;;;;;;4.23;1.90;;;18.80;90.90;;;;;;5017924;28;20519;-83
2022/07/02 01:04:31;;;;;;;2.33;2.00;;;18.90;90.70;;;;;;5016366;28;20466;-82
2022/07/02 01:07:06;;;;;;;4.10;1.83;;;18.90;90.60;;;;;;5018700;28;20462;-84
2022/07/02 01:12:26;;;;;;;4.67;2.20;;;18.80;91.20;;;;;;5026386;28;20438;-83
2022/07/02 01:14:54;;;;;;;2.30;2.10;;;18.80;91.20;;;;;;5018164;28;20508;-83
2022/07/02 01:17:21;;;;;;;3.50;2.70;;;18.90;91.20;;;;;;5002826;28;20465;-83
2022/07/02 01:19:48;;;;;;;2.30;1.90;;;18.80;91.20;;;;;;5017599;28;20468;-82
2022/07/02 01:22:20;;;;;;;3.30;2.30;;;18.60;91.50;;;;;;5017372;28;20858;-84
2022/07/02 01:24:52;;;;;;;2.67;2.07;;;18.60;91.70;;;;;;5002703;28;20504;-85
2022/07/02 01:27:20;;;;;;;2.07;1.90;;;18.60;91.70;;;;;;5004680;28;20449;-85
2022/07/02 01:29:47;;;;;;;3.17;2.23;;;18.70;92.60;;;;;;5018834;28;20970;-83
2022/07/02 01:32:14;;;;;;;2.63;2.03;;;18.80;94.10;;;;;;5017749;28;21010;-83
2022/07/02 01:34:44;;;;;;;3.13;2.43;;;18.60;94.70;;;;;;5015660;28;20960;-84
2022/07/02 01:37:16;;;;;;;2.90;2.70;;;18.60;95.00;;;;;;5016467;28;20458;-83
2022/07/02 01:39:44;;;;;;;3.30;3.00;;;18.40;95.30;;;;;;5008467;28;20468;-84
2022/07/02 01:42:11;;;;;;;4.77;3.97;;;18.30;95.90;;;;;;5017905;28;20481;-83
2022/07/02 01:44:39;;;;;;;11.53;6.23;;;18.20;96.60;;;;;;5016624;28;20457;-82
2022/07/02 01:47:09;;;;;;;6.23;4.30;;;18.10;97.00;;;;;;5015892;28;20461;-83
2022/07/02 01:49:37;;;;;;;3.27;2.77;;;18.10;97.30;;;;;;5016074;28;20461;-83
2022/07/02 01:52:05;;;;;;;3.93;3.50;;;18.20;97.30;;;;;;5024119;28;20468;-81
2022/07/02 01:54:33;;;;;;;6.57;5.50;;;18.10;97.40;;;;;;5029272;28;21238;-84
2022/07/02 01:57:01;;;;;;;5.37;4.87;;;18.10;97.70;;;;;;5029872;28;20461;-84
2022/07/02 01:59:28;;;;;;;10.53;5.50;;;18.20;98.00;;;;;;5012875;28;20482;-83
2022/07/02 02:01:54;;;;;;;7.10;4.30;;;18.00;98.10;;;;;;5029805;28;20516;-80
2022/07/02 02:04:21;;;;;;;3.83;3.47;;;17.90;98.50;;;;;;5008421;28;20461;-83
2022/07/02 02:06:48;;;;;;;3.23;2.87;;;17.80;98.70;;;;;;5022525;28;20480;-86
2022/07/02 02:09:15;;;;;;;3.03;2.77;;;17.70;98.90;;;;;;5019432;28;20473;-82
2022/07/02 02:11:43;;;;;;;3.57;2.60;;;17.60;99.40;;;;;;5018381;28;20464;-85
2022/07/02 02:14:10;;;;;;;5.57;2.70;;;17.50;99.70;;;;;;5007617;28;21492;-84
2022/07/02 02:16:37;;;;;;;2.43;2.23;;;17.40;99.90;;;;;;5023166;28;20484;-83
2022/07/02 02:19:05;;;;;;;3.03;2.30;;;17.30;99.90;;;;;;5024071;28;20441;-84
2022/07/02 02:21:33;;;;;;;2.73;2.53;;;17.30;99.90;;;;;;5017414;28;21746;-84
2022/07/02 02:23:59;;;;;;;2.70;2.50;;;17.30;99.90;;;;;;5019395;28;20457;-83
2022/07/02 02:26:27;;;;;;;2.40;2.10;;;17.20;99.90;;;;;;5017378;28;20469;-85
2022/07/02 02:28:54;;;;;;;2.40;2.20;;;17.30;99.90;;;;;;5018421;28;20446;-82
2022/07/02 02:31:22;;;;;;;3.03;2.80;;;17.20;99.90;;;;;;5002387;28;20453;-83
2022/07/02 02:33:49;;;;;;;2.77;2.30;;;17.20;99.90;;;;;;5016305;28;20492;-82
2022/07/02 02:36:16;;;;;;;3.00;2.60;;;17.20;99.90;;;;;;5016648;28;20477;-84
2022/07/02 02:38:46;;;;;;;3.13;2.83;;;17.10;99.90;;;;;;5000340;28;20467;-83
2022/07/02 02:41:13;;;;;;;2.90;2.70;;;17.00;99.90;;;;;;5016695;28;20484;-83
2022/07/02 02:43:41;;;;;;;2.63;2.43;;;16.90;99.90;;;;;;5016341;28;20769;-84
2022/07/02 02:46:08;;;;;;;3.90;2.60;;;16.90;99.90;;;;;;5019083;28;20821;-82
2022/07/02 02:48:36;;;;;;;2.80;2.60;;;16.80;99.90;;;;;;5000539;28;20473;-85
2022/07/02 02:51:04;;;;;;;2.63;2.43;;;16.80;99.90;;;;;;5000992;28;21269;-82
2022/07/02 02:53:31;;;;;;;2.90;2.70;;;16.70;99.90;;;;;;5015584;28;20512;-84
2022/07/02 02:56:02;;;;;;;2.80;2.50;;;16.60;99.90;;;;;;5001443;28;20473;-82
2022/07/02 02:58:28;;;;;;;2.87;2.67;;;16.80;99.90;;;;;;5014259;28;20998;-83
2022/07/02 03:00:55;;;;;;;3.20;2.70;;;16.70;99.90;;;;;;5019210;28;20457;-84
2022/07/02 03:03:22;;;;;;;2.60;2.40;;;16.70;99.90;;;;;;5017377;28;20457;-81
2022/07/02 03:05:49;;;;;;;2.73;2.50;;;16.70;99.90;;;;;;5016516;28;20484;-84
2022/07/02 03:08:16;;;;;;;2.47;2.20;;;16.90;99.90;;;;;;5000739;28;21011;-84
2022/07/02 03:10:43;;;;;;;2.77;2.57;;;16.90;99.90;;;;;;5001643;28;20458;-83
2022/07/02 03:13:09;;;;;;;8.03;3.40;;;16.90;99.90;;;;;;5015371;28;20458;-84
2022/07/02 03:15:36;;;;;;;2.90;2.70;;;16.90;99.90;;;;;;5015879;28;20469;-82
2022/07/02 03:18:03;;;;;;;4.57;3.13;;;17.00;99.90;;;;;;5016553;28;20692;-83
2022/07/02 03:20:31;;;;;;;4.93;2.97;;;17.10;99.90;;;;;;5014644;28;20450;-83
2022/07/02 03:22:58;;;;;;;6.07;2.57;;;17.10;99.90;;;;;;5013965;28;20483;-83
2022/07/02 03:25:25;;;;;;;4.20;2.90;;;17.00;99.90;;;;;;5016478;28;20561;-84
2022/07/02 03:27:52;;;;;;;3.87;2.40;;;17.00;99.90;;;;;;5012065;28;20459;-83
2022/07/02 03:30:19;;;;;;;3.80;2.83;;;17.00;99.90;;;;;;4999216;28;20464;-83
2022/07/02 03:32:45;;;;;;;2.53;2.33;;;17.00;99.90;;;;;;5016321;28;20825;-84
2022/07/02 03:35:12;;;;;;;2.80;2.50;;;17.00;99.90;;;;;;5016295;28;20484;-85
2022/07/02 03:37:39;;;;;;;2.23;2.13;;;17.00;99.90;;;;;;5016446;28;20568;-83
2022/07/02 03:40:08;;;;;;;4.27;2.10;;;17.00;99.90;;;;;;5004101;28;20496;-83
2022/07/02 03:42:36;;;;;;;3.73;2.80;;;16.90;99.90;;;;;;5019124;28;20485;-83
2022/07/02 03:45:04;;;;;;;3.43;2.77;;;16.70;99.90;;;;;;5016876;28;20483;-86
2022/07/02 03:47:31;;;;;;;3.67;2.63;;;16.70;99.90;;;;;;5016209;28;20804;-84
2022/07/02 03:49:57;;;;;;;2.63;2.40;;;16.70;99.90;;;;;;5016350;28;20465;-83
2022/07/02 03:52:24;;;;;;;3.00;2.80;;;16.60;99.90;;;;;;5003423;28;20458;-83
2022/07/02 03:54:53;;;;;;;3.60;2.77;;;16.50;99.90;;;;;;5025658;28;20516;-84
2022/07/02 03:57:19;;;;;;;4.20;3.20;;;16.50;99.90;;;;;;5021247;28;21858;-83
2022/07/02 03:59:46;;;;;;;2.97;2.67;;;16.40;99.90;;;;;;5022762;28;20449;-84
2022/07/02 04:02:13;;;;;;;3.23;2.97;;;16.30;99.90;;;;;;5035018;28;20730;-85
2022/07/02 04:04:39;;;;;;;3.23;2.93;;;16.40;99.90;;;;;;5039666;28;21468;-84
2022/07/02 04:07:06;;;;;;;2.70;2.50;;;16.40;99.90;;;;;;5010947;28;20465;-84
2022/07/02 04:09:33;;;;;;;3.63;2.70;;;16.30;99.90;;;;;;5022434;28;20468;-85
2022/07/02 04:12:00;;;;;;;3.07;2.70;;;16.40;99.90;;;;;;5015079;28;20449;-85
2022/07/02 04:14:26;;;;;;;3.63;2.97;;;16.30;99.90;;;;;;5032552;28;20455;-86
2022/07/02 04:16:53;;;;;;;3.57;3.27;;;16.20;99.90;;;;;;5021473;28;20454;-84
2022/07/02 04:19:20;;;;;;;4.00;2.83;;;16.20;99.90;;;;;;5022870;28;20477;-83
2022/07/02 04:21:47;;;;;;;2.73;2.53;;;16.10;99.90;;;;;;5022221;28;20564;-82
2022/07/02 04:24:14;;;;;;;2.43;2.23;;;16.20;99.90;;;;;;5009640;28;20450;-85
2022/07/02 04:26:40;;;;;;;3.27;2.40;;;16.10;99.90;;;;;;5029798;28;20487;-83
2022/07/02 04:29:07;;;;;;;3.13;2.57;;;16.00;99.90;;;;;;5031926;28;20457;-85
2022/07/02 04:31:34;;;;;;;3.83;2.80;;;16.20;99.90;;;;;;5034162;28;20450;-85
2022/07/02 04:34:01;;;;;;;3.73;2.73;;;16.30;99.90;;;;;;5016131;28;20453;-83
2022/07/02 04:36:28;;;;;;;3.20;2.90;;;16.20;99.90;;;;;;5010076;28;20488;-83
2022/07/02 04:38:54;;;;;;;3.20;2.90;;;16.20;99.90;;;;;;5021400;28;20949;-81
2022/07/02 04:41:21;;;;;;;2.77;2.53;;;16.10;99.90;;;;;;5020044;28;20461;-82
2022/07/02 04:43:48;;;;;;;5.37;3.30;;;16.20;99.90;;;;;;5021121;28;20520;-82
2022/07/02 04:46:14;;;;;;;2.93;2.63;;;16.20;99.90;;;;;;5017346;28;20488;-81
2022/07/02 04:48:41;;;;;;;3.00;2.40;;;16.00;99.90;;;;;;5019098;28;20458;-83
2022/07/02 04:51:08;;;;;;;2.63;2.40;;;16.10;99.90;;;;;;5008043;28;20477;-82
2022/07/02 04:53:34;;;;;;;4.37;2.80;;;16.20;99.90;;;;;;5012609;28;20445;-83
2022/07/02 04:56:01;;;;;;;2.67;2.47;;;16.20;99.90;;;;;;5025102;28;20539;-83
2022/07/02 04:58:28;;;;;;;2.80;2.60;;;16.40;99.90;;;;;;5016966;28;20457;-85
2022/07/02 05:00:54;;;;;;;3.90;2.80;;;16.40;99.90;;;;;;5014811;28;20520;-83
2022/07/02 05:03:21;;;;;;;2.53;2.33;;;16.50;99.90;;;;;;5006725;28;20580;-82
2022/07/02 05:05:48;;;;;;;3.20;2.90;;;16.50;99.90;;;;;;5019088;28;20485;-82
2022/07/02 05:08:15;;;;;;;4.03;2.50;;;16.50;99.90;;;;;;5021590;28;20468;-83
2022/07/02 05:10:41;;;;;;;2.73;2.03;;;16.40;99.90;;;;;;5022421;28;20453;-84
2022/07/02 05:13:08;;;;;;;5.10;2.10;;;16.40;99.90;;;;;;5019322;28;20472;-83
2022/07/02 05:15:39;;;;;;;3.07;2.50;;;16.40;99.90;;;;;;5003817;28;20512;-85
2022/07/02 05:18:06;;;;;;;3.00;2.10;;;16.50;99.90;;;;;;5000335;28;20471;-83
2022/07/02 05:20:33;;;;;;;2.80;2.60;;;16.70;99.90;;;;;;5018120;28;20469;-85
2022/07/02 05:22:59;;;;;;;2.73;2.10;;;16.70;99.90;;;;;;5017200;28;20492;-83
2022/07/02 05:25:26;;;;;;;2.53;2.23;;;16.70;99.90;;;;;;5016459;28;20482;-84
2022/07/02 05:27:52;;;;;;;2.47;2.27;;;16.80;99.90;;;;;;5016169;28;20472;-83
2022/07/02 05:30:19;;;;;;;2.37;2.27;;;16.80;99.90;;;;;;5021509;28;20453;-84
2022/07/02 05:32:46;;;;;;;2.43;2.23;;;16.90;99.90;;;;;;4981084;28;20519;-84
2022/07/02 05:35:12;;;;;;;3.10;2.40;;;16.80;99.90;;;;;;5006298;28;20969;-84
2022/07/02 05:37:39;;;;;;;3.40;2.53;;;16.80;99.90;;;;;;5029876;28;20453;-84
2022/07/02 05:40:08;;;;;;;2.27;2.13;;;16.80;99.90;;;;;;5033603;28;20456;-83
2022/07/02 05:42:35;;;;;;;2.63;2.20;;;16.90;99.90;;;;;;5023092;28;20487;-84
2022/07/02 05:45:01;;;;;;;2.50;2.30;;;16.80;99.90;;;;;;5020966;28;20481;-84
2022/07/02 05:47:28;;;;;;;2.50;2.30;;;16.80;99.90;;;;;;5018577;28;21303;-83
2022/07/02 05:49:55;;;;;;;2.87;2.10;;;17.00;99.90;;;;;;5018880;28;20462;-83
2022/07/02 05:52:22;;;;;;;2.70;2.33;;;17.00;99.60;;;;;;5002973;28;20466;-84
2022/07/02 05:54:48;;;;;;;2.20;2.00;;;17.00;99.90;;;;;;5018595;28;20477;-83
2022/07/02 05:57:15;;;;;;;2.40;2.20;;;17.00;99.80;;;;;;5019564;28;20461;-84
2022/07/02 05:59:42;;;;;;;3.43;2.03;;;17.10;99.70;;;;;;5021280;28;20473;-84
2022/07/02 06:02:08;;;;;;;2.23;2.13;;;17.20;99.80;;;;;;5003031;28;20497;-82
2022/07/02 06:04:35;;;;;;;3.93;2.30;;;17.20;99.20;;;;;;5019772;28;21022;-84
2022/07/02 06:09:47;;;;;;;2.23;2.03;;;17.30;99.00;;;;;;5019790;28;20594;-83
2022/07/02 06:12:14;;;;;;;4.03;2.50;;;17.20;99.10;;;;;;5022274;28;20446;-83
2022/07/02 06:14:41;;;;;;;4.63;2.27;;;17.20;99.50;;;;;;5005054;28;20840;-84
2022/07/02 06:17:10;;;;;;;2.70;2.30;;;17.50;99.20;;;;;;5004383;28;20466;-82
2022/07/02 06:19:38;;;;;;;2.23;2.03;;;17.60;98.90;;;;;;5022140;28;20457;-84
2022/07/02 06:22:05;;;;;;;2.13;2.03;;;17.60;98.40;;;;;;5009523;28;20482;-84
2022/07/02 06:24:32;;;;;;;2.30;2.20;;;17.80;98.00;;;;;;5030164;28;20456;-84
2022/07/02 06:26:59;;;;;;;3.50;2.03;;;17.90;98.30;;;;;;5030962;28;20464;-83
2022/07/02 06:29:26;;;;;;;2.27;1.90;;;18.00;98.10;;;;;;5028164;28;20457;-84
2022/07/02 06:31:53;;;;;;;2.47;1.83;;;18.00;97.70;;;;;;5032287;28;20446;-86
2022/07/02 06:34:20;;;;;;;2.97;2.17;;;18.00;97.40;;;;;;5005524;28;20453;-83
2022/07/02 06:36:47;;;;;;;1.80;1.70;;;18.10;97.60;;;;;;5002521;28;21045;-84
2022/07/02 06:39:14;;;;;;;3.23;1.73;;;18.20;97.30;;;;;;5021792;28;20454;-83
2022/07/02 06:44:26;;;;;;;2.30;2.10;;;18.20;96.80;;;;;;5029401;28;20437;-85
2022/07/02 06:46:52;;;;;;;1.73;1.63;;;18.20;97.30;;;;;;5031269;28;20465;-84
2022/07/02 06:49:20;;;;;;;1.97;1.70;;;18.30;97.40;;;;;;5029345;28;20446;-84
2022/07/02 06:51:46;;;;;;;3.13;2.00;;;18.40;97.00;;;;;;5023374;28;20457;-84
2022/07/02 06:54:13;;;;;;;1.80;1.50;;;18.60;96.40;;;;;;5017809;28;20438;-83
2022/07/02 06:56:40;;;;;;;2.80;1.63;;;18.70;96.20;;;;;;5028562;28;20477;-85
2022/07/02 06:59:07;;;;;;;2.00;1.53;;;18.80;96.20;;;;;;5011005;28;20469;-85
2022/07/02 07:01:34;;;;;;;2.80;2.00;;;18.80;96.10;;;;;;5022415;28;20468;-83
2022/07/02 07:04:07;;;;;;;1.90;1.80;;;18.90;95.50;;;;;;5003822;28;20481;-81
2022/07/02 07:06:39;;;;;;;1.87;1.70;;;19.10;95.70;;;;;;4999341;28;20477;-84
2022/07/02 07:09:07;;;;;;;2.30;1.43;;;19.20;95.10;;;;;;5003885;28;20461;-84
2022/07/02 07:11:34;;;;;;;1.60;1.40;;;19.40;94.10;;;;;;5019339;28;20465;-82
2022/07/02 07:14:01;;;;;;;1.40;1.30;;;19.60;93.60;;;;;;5010386;28;20464;-84
2022/07/02 07:16:28;;;;;;;3.07;1.40;;;19.60;93.60;;;;;;5002063;28;20504;-84
2022/07/02 07:18:59;;;;;;;1.50;1.40;;;19.80;93.10;;;;;;5002446;28;20466;-84
2022/07/02 07:21:26;;;;;;;7.53;2.17;;;19.90;93.00;;;;;;5015174;28;20524;-84
2022/07/02 07:23:53;;;;;;;2.70;1.50;;;19.60;92.20;;;;;;5019163;28;20488;-85
2022/07/02 07:26:20;;;;;;;2.20;1.40;;;19.50;92.90;;;;;;5005837;28;21179;-81
2022/07/02 07:28:48;;;;;;;1.50;1.40;;;19.80;92.60;;;;;;5003446;28;20464;-81
2022/07/02 07:31:21;;;;;;;3.20;1.27;;;20.00;92.50;;;;;;5003891;28;21809;-81
2022/07/02 07:33:50;;;;;;;1.50;1.40;;;20.20;92.10;;;;;;5004198;28;20669;-82
2022/07/02 07:36:20;;;;;;;5.30;1.07;;;20.40;91.40;;;;;;5003835;28;21358;-83
2022/07/02 07:38:51;;;;;;;2.27;1.50;;;20.60;90.40;;;;;;5025244;28;20463;-85
2022/07/02 07:41:19;;;;;;;2.90;1.30;;;20.50;90.30;;;;;;5024065;28;20537;-85
2022/07/02 07:43:51;;;;;;;1.23;1.00;;;20.60;90.30;;;;;;5022599;28;20496;-84
2022/07/02 07:46:20;;;;;;;1.23;1.13;;;20.80;90.00;;;;;;5039093;28;20483;-83
2022/07/02 07:48:47;;;;;;;1.67;1.27;;;20.90;89.70;;;;;;5049399;28;20454;-85
2022/07/02 07:51:14;;;;;;;1.13;1.03;;;20.80;90.00;;;;;;5035049;28;20457;-85
2022/07/02 07:53:43;;;;;;;2.03;1.80;;;21.00;88.70;;;;;;5011793;28;20832;-83
2022/07/02 07:56:19;;;;;;;2.63;1.43;;;21.10;88.00;;;;;;5016608;28;20489;-85
2022/07/02 07:58:46;;;;;;;1.00;1.00;;;21.10;87.30;;;;;;5037394;28;20559;-85
2022/07/02 08:01:17;;;;;;;2.50;1.20;;;21.10;87.50;;;;;;5022393;28;20456;-83
2022/07/02 08:03:44;;;;;;;1.70;1.00;;;21.30;86.70;;;;;;5007378;28;20488;-84
2022/07/02 08:06:11;;;;;;;1.17;1.07;;;20.90;86.30;;;;;;5011100;28;20480;-83
2022/07/02 08:08:38;;;;;;;4.03;1.60;;;21.00;87.20;;;;;;5020987;28;20457;-83
2022/07/02 08:11:07;;;;;;;1.23;1.13;;;21.50;85.50;;;;;;5010786;28;20454;-83
2022/07/02 08:13:35;;;;;;;1.07;0.90;;;21.60;83.10;;;;;;5013625;28;20461;-84
2022/07/02 08:16:02;;;;;;;0.90;0.90;;;21.70;82.10;;;;;;5028938;28;20487;-82
2022/07/02 08:18:29;;;;;;;3.63;2.67;;;21.90;79.80;;;;;;5015665;28;20461;-84
2022/07/02 08:20:56;;;;;;;1.30;0.70;;;22.00;81.30;;;;;;5027730;28;20445;-83
2022/07/02 08:23:23;;;;;;;3.27;1.10;;;22.20;81.00;;;;;;5028676;28;20580;-82
2022/07/02 08:25:50;;;;;;;2.97;1.47;;;22.30;80.00;;;;;;5025660;28;20867;-85
2022/07/02 08:28:20;;;;;;;0.77;0.70;;;22.50;78.20;;;;;;5019134;28;20468;-82
2022/07/02 08:30:47;;;;;;;2.47;1.33;;;22.80;74.40;;;;;;5008664;28;20457;-84
2022/07/02 08:33:16;;;;;;;0.97;0.87;;;22.90;75.10;;;;;;5027092;28;20924;-83
2022/07/02 08:35:43;;;;;;;1.17;0.80;;;22.90;73.70;;;;;;5015663;28;20609;-85
2022/07/02 08:38:11;;;;;;;6.10;1.40;;;22.90;71.00;;;;;;5012263;28;20497;-82
2022/07/02 08:40:42;;;;;;;1.33;0.70;;;23.10;69.80;;;;;;5023143;28;20505;-85
2022/07/02 08:43:12;;;;;;;0.97;0.97;;;22.70;70.00;;;;;;5020268;28;20548;-84
2022/07/02 08:45:44;;;;;;;1.27;0.70;;;23.40;69.40;;;;;;5008356;28;20473;-84
2022/07/02 08:48:12;;;;;;;1.87;0.93;;;23.70;67.00;;;;;;5011203;28;20453;-84
2022/07/02 08:50:40;;;;;;;3.87;0.90;;;24.10;63.80;;;;;;5024007;28;20465;-83
2022/07/02 08:53:08;;;;;;;2.40;0.90;;;24.10;62.20;;;;;;5028945;28;20461;-83
2022/07/02 08:55:36;;;;;;;3.03;0.90;;;24.40;58.00;;;;;;5017495;28;20473;-83
2022/07/02 08:58:05;;;;;;;2.93;0.90;;;25.00;58.10;;;;;;5028823;28;20453;-84
2022/07/02 09:00:34;;;;;;;1.40;1.00;;;25.50;56.50;;;;;;5013292;28;20441;-83
2022/07/02 09:03:02;;;;;;;1.73;0.83;;;25.20;56.80;;;;;;5011661;28;20489;-84
2022/07/02 09:05:30;;;;;;;0.97;0.73;;;25.60;56.90;;;;;;5010835;28;20499;-84
2022/07/02 09:07:58;;;;;;;0.80;0.80;;;25.20;56.30;;;;;;5010128;28;20454;-84
2022/07/02 09:10:27;;;;;;;1.13;0.90;;;24.90;56.80;;;;;;5007778;28;20461;-84
2022/07/02 09:12:57;;;;;;;0.90;0.70;;;25.10;54.10;;;;;;5025371;28;20493;-84
2022/07/02 09:15:25;;;;;;;1.70;0.77;;;25.50;53.70;;;;;;5005846;28;20485;-86
2022/07/02 09:17:52;;;;;;;1.47;0.80;;;25.60;53.60;;;;;;5008326;28;20468;-83
2022/07/02 09:20:19;;;;;;;1.00;0.60;;;26.60;51.70;;;;;;5023797;28;20491;-85
2022/07/02 09:22:49;;;;;;;2.00;1.00;;;26.80;51.30;;;;;;5026056;28;20477;-83
2022/07/02 09:26:04;;;;;;;;;;;;;;;;;;;;;
2022/07/02 09:28:59;;;;;;;1.30;0.70;;;25.80;52.70;;;;;;5002164;28;20468;-85
2022/07/02 09:32:42;;;;;;;;;;;;;;;;;;;;;
2022/07/02 09:35:17;;;;;;;1.10;0.60;;;25.40;53.70;;;;;;4967763;28;20480;-83
2022/07/02 09:38:16;;;;;;;1.17;0.70;;;26.80;51.10;;;;;;4964640;28;20477;-86
2022/07/02 09:41:01;;;;;;;0.70;0.70;;;27.10;50.40;;;;;;4949957;28;20468;-83
2022/07/02 09:43:37;;;;;;;1.07;0.90;;;26.50;50.70;;;;;;4969253;28;20495;-83
2022/07/02 09:46:21;;;;;;;1.30;1.10;;;26.30;51.70;;;;;;5021751;23;20496;-84
2022/07/02 09:48:51;;;;;;;1.47;0.83;;;26.70;50.90;;;;;;5033718;28;20521;-84
2022/07/02 09:52:05;;;;;;;1.87;0.90;;;26.20;51.20;;;;;;5049078;28;20449;-84
2022/07/02 09:55:01;;;;;;;3.50;0.97;;;25.90;52.10;;;;;;5026535;28;20818;-85
2022/07/02 09:57:47;;;;;;;13.73;1.37;;;25.70;52.80;;;;;;5045706;28;20430;-86
2022/07/02 10:00:24;;;;;;;2.10;1.00;;;25.10;53.60;;;;;;5047826;28;20464;-86
2022/07/02 10:03:09;;;;;;;1.97;0.90;;;24.80;54.50;;;;;;5043534;28;20472;-85
2022/07/02 10:05:38;;;;;;;0.93;0.73;;;25.80;53.70;;;;;;5046320;28;20505;-86
2022/07/02 10:08:41;;;;;;;1.07;0.97;;;26.60;51.20;;;;;;5047180;28;20470;-87
2022/07/02 10:11:12;;;;;;;1.37;0.70;;;29.40;47.40;;;;;;4984432;28;20460;-85
2022/07/02 10:13:42;;;;;;;1.20;1.10;;;30.20;44.00;;;;;;4997957;28;20446;-87
2022/07/02 10:19:52;;;;;;;3.03;1.10;;;29.20;45.50;;;;;;4922613;28;20448;-83
2022/07/02 10:22:28;;;;;;;0.90;0.60;;;29.70;43.60;;;;;;4961263;28;20464;-84
2022/07/02 10:24:55;;;;;;;0.60;0.60;;;29.60;42.70;;;;;;4943185;28;20509;-86
2022/07/02 10:27:22;;;;;;;1.00;0.60;;;29.60;43.30;;;;;;4977106;28;20499;-83
2022/07/02 10:29:49;;;;;;;1.00;0.70;;;30.30;41.60;;;;;;4969488;28;20472;-85
2022/07/02 10:32:35;;;;;;;1.07;0.90;;;30.00;41.50;;;;;;4971212;28;20542;-84
2022/07/02 10:35:15;;;;;;;1.30;0.77;;;30.60;41.30;;;;;;4954073;28;20482;-83
2022/07/02 10:37:43;;;;;;;1.80;0.80;;;30.70;40.00;;;;;;4970054;28;20460;-83
2022/07/02 10:40:15;;;;;;;0.50;0.50;;;31.30;38.90;;;;;;4969480;28;20467;-87
2022/07/02 10:42:48;;;;;;;2.80;0.73;;;31.80;38.80;;;;;;4963235;28;20468;-83
2022/07/02 10:45:22;;;;;;;1.60;0.50;;;31.30;38.70;;;;;;4963169;28;20555;-83
2022/07/02 10:47:58;;;;;;;1.00;0.80;;;30.10;39.60;;;;;;4963309;28;20448;-84
2022/07/02 10:50:38;;;;;;;1.40;0.90;;;30.40;40.20;;;;;;4988962;28;21446;-83
2022/07/02 10:53:12;;;;;;;1.67;0.60;;;30.40;38.90;;;;;;5023310;28;20465;-84
2022/07/02 10:55:44;;;;;;;3.77;1.00;;;29.70;39.50;;;;;;5020803;28;20554;-85
2022/07/02 10:58:22;;;;;;;1.23;0.60;;;30.20;39.30;;;;;;5022191;28;20470;-84
2022/07/02 11:00:51;;;;;;;2.40;0.70;;;30.40;38.10;;;;;;5022328;28;20446;-84
2022/07/02 11:03:19;;;;;;;0.90;0.60;;;30.50;38.40;;;;;;5019755;28;22262;-84
2022/07/02 11:06:02;;;;;;;1.33;0.80;;;30.00;38.10;;;;;;5024433;28;20473;-85
2022/07/02 11:08:43;;;;;;;0.97;0.80;;;30.20;39.00;;;;;;5018729;28;20453;-83
2022/07/02 11:11:12;;;;;;;0.90;0.67;;;31.00;38.00;;;;;;5018959;28;20457;-83
2022/07/02 11:13:47;;;;;;;1.60;0.70;;;31.60;37.40;;;;;;5019754;28;20464;-83
2022/07/02 11:16:22;;;;;;;1.33;0.80;;;30.60;38.00;;;;;;4982412;28;20815;-82
2022/07/02 11:18:49;;;;;;;2.30;0.90;;;29.20;39.50;;;;;;5019784;28;20492;-84
2022/07/02 11:21:17;;;;;;;1.37;0.80;;;28.80;41.00;;;;;;5015585;28;20465;-84
2022/07/02 11:23:44;;;;;;;3.33;0.90;;;28.70;41.70;;;;;;5022043;28;20501;-85
2022/07/02 11:26:22;;;;;;;0.80;0.67;;;29.40;41.40;;;;;;5018427;28;20466;-84
2022/07/02 11:28:49;;;;;;;1.60;0.70;;;29.80;40.80;;;;;;5020977;28;21056;-86
2022/07/02 11:31:18;;;;;;;0.90;0.70;;;30.10;39.80;;;;;;5021749;28;20476;-84
2022/07/02 11:33:50;;;;;;;1.90;0.70;;;29.40;40.10;;;;;;5022263;28;20795;-84
2022/07/02 11:36:24;;;;;;;0.67;0.67;;;28.80;41.00;;;;;;5023724;28;20476;-81
2022/07/02 11:38:51;;;;;;;1.20;0.90;;;28.20;42.00;;;;;;5022776;28;20457;-85
2022/07/02 11:41:37;;;;;;;0.67;0.60;;;28.10;42.60;;;;;;5020730;28;20480;-84
2022/07/02 11:44:24;;;;;;;0.87;0.70;;;27.50;43.30;;;;;;5018082;28;20849;-85
2022/07/02 11:46:57;;;;;;;2.70;0.60;;;27.50;43.80;;;;;;5016332;28;20480;-85
2022/07/02 11:49:26;;;;;;;7.20;6.00;;;27.80;43.80;;;;;;5013703;28;20462;-83
2022/07/02 11:51:55;;;;;;;2.20;1.00;;;28.20;43.00;;;;;;5017530;28;21024;-84
2022/07/02 11:54:23;;;;;;;1.40;1.00;;;27.80;43.50;;;;;;5023080;28;20790;-85
2022/07/02 11:56:52;;;;;;;1.60;0.80;;;28.60;42.90;;;;;;5023172;28;20493;-82
2022/07/02 11:59:21;;;;;;;1.30;1.20;;;28.40;43.20;;;;;;5021594;28;20916;-85
2022/07/02 12:01:49;;;;;;;1.00;0.70;;;29.20;42.30;;;;;;5024401;28;20467;-82
2022/07/02 12:04:18;;;;;;;1.63;1.00;;;30.00;41.30;;;;;;5022404;28;20517;-83
2022/07/02 12:06:49;;;;;;;0.90;0.80;;;29.80;41.30;;;;;;5020920;28;20504;-83
2022/07/02 12:09:22;;;;;;;0.90;0.90;;;30.10;40.90;;;;;;5023627;28;21173;-85
2022/07/02 12:11:50;;;;;;;1.07;0.80;;;29.50;41.40;;;;;;5025008;28;20560;-84
2022/07/02 12:14:24;;;;;;;1.37;0.93;;;30.30;41.70;;;;;;5039273;28;20452;-87
2022/07/02 12:16:52;;;;;;;0.93;0.73;;;31.00;39.70;;;;;;5041692;28;20528;-86
2022/07/02 12:19:19;;;;;;;0.60;0.60;;;30.70;39.60;;;;;;5041114;28;20477;-86
2022/07/02 12:21:50;;;;;;;1.00;0.83;;;30.50;39.70;;;;;;5040256;28;20543;-86
2022/07/02 12:24:35;;;;;;;0.83;0.70;;;30.20;40.50;;;;;;5041068;28;20488;-87
2022/07/02 12:27:03;;;;;;;1.23;0.87;;;31.50;37.80;;;;;;5041967;28;20459;-86
2022/07/02 12:29:56;;;;;;;1.10;1.00;;;31.30;38.20;;;;;;5041322;28;20511;-85
2022/07/02 12:32:24;;;;;;;0.90;0.90;;;31.20;38.30;;;;;;5037021;28;20464;-85
2022/07/02 12:35:00;;;;;;;3.10;1.10;;;30.50;39.50;;;;;;5033911;28;20484;-86
2022/07/02 12:37:42;;;;;;;1.90;1.00;;;30.00;40.90;;;;;;5025514;28;20536;-85
2022/07/02 12:40:14;;;;;;;1.60;0.70;;;29.40;41.40;;;;;;5016068;28;20557;-85
2022/07/02 12:42:48;;;;;;;1.17;0.60;;;29.10;41.50;;;;;;5016597;28;20725;-83
2022/07/02 12:45:29;;;;;;;1.47;0.73;;;29.00;42.10;;;;;;5017688;28;20485;-85
2022/07/02 12:48:06;;;;;;;1.10;0.80;;;29.70;41.70;;;;;;5019194;28;20456;-85
2022/07/02 12:50:37;;;;;;;0.70;0.70;;;30.10;40.10;;;;;;5018520;28;20521;-85
2022/07/02 12:53:07;;;;;;;1.37;0.70;;;29.80;40.20;;;;;;5014643;28;20472;-85
2022/07/02 12:55:36;;;;;;;2.80;1.03;;;29.10;41.40;;;;;;5018428;28;20477;-84
2022/07/02 12:58:06;;;;;;;1.43;0.80;;;29.20;41.70;;;;;;5022557;28;20509;-85
2022/07/02 13:00:34;;;;;;;3.13;1.00;;;29.10;41.90;;;;;;5021080;28;20464;-84
2022/07/02 13:03:05;;;;;;;1.87;0.73;;;30.00;40.90;;;;;;5026522;28;20459;-85
2022/07/02 13:05:35;;;;;;;2.50;1.50;;;29.80;40.60;;;;;;5025000;28;20491;-84
2022/07/02 13:08:02;;;;;;;0.80;0.80;;;30.10;40.90;;;;;;5024689;28;20492;-83
2022/07/02 13:10:29;;;;;;;1.90;0.70;;;30.50;40.00;;;;;;5026495;28;20456;-83
2022/07/02 13:12:56;;;;;;;2.20;0.90;;;30.50;39.60;;;;;;5028739;28;20550;-85
2022/07/02 13:15:23;;;;;;;2.10;0.97;;;30.00;40.50;;;;;;5022330;28;20560;-84